Vendome Street — A8YI6 — position and weather

sailwx.info

Track history (hours):
 
Tides and Currents Weather Stations Pressure Air Temp Water Temp Dewpoint Dewpoint Depression Visibility Wind Speed Wind Dir Waves Ship Positions

Vendome Street

Last reported at 2017-Dec-15 19:22 UTC. Time now 2017-Dec-16 18:47 UTC.
Position N 09°37' W 079°46'.

Length 177 m; draft 7.5 m.

Type: Ship. MMSI: 636015064.

Date/timePositionNaut miles runAvg speedWind from/ knotsBaromVisibWave heightAir tempDewpointWater temp
2017-Dec-15 19:22N 09°37' W 079°46'812.7
2017-Dec-15 18:43N 09°31' W 079°51'211.5
2017-Dec-15 18:30N 09°29' W 079°53'611.3
2017-Dec-15 18:00N 09°24' W 079°55'4 8.5
2017-Dec-15 17:31N 09°20' W 079°55'3 6.6
2017-Dec-15 17:00N 09°17' W 079°55'0 0.1
2017-Dec-15 16:31N 09°17' W 079°55'0 0.7
2017-Dec-15 16:00N 09°16' W 079°55'1 1.0
2017-Dec-15 15:30N 09°16' W 079°55'2 4.0
2017-Dec-15 15:00N 09°14' W 079°55'4 8.4
2017-Dec-15 14:30N 09°11' W 079°52'  
Track history (hours):
 
Tides and Currents Weather Stations Pressure Air Temp Water Temp Dewpoint Dewpoint Depression Visibility Wind Speed Wind Dir Waves Ship Positions

Vendome Street

Last reported at 2017-Dec-15 19:22 UTC. Time now 2017-Dec-16 18:47 UTC.
Position N 09°37' W 079°46'.

Length 177 m; draft 7.5 m.

Type: Ship. MMSI: 636015064.

Date/timePositionNaut miles runAvg speedWind from/ knotsBaromVisibWave heightAir tempDewpointWater temp
2017-Dec-15 19:22N 09°37' W 079°46'812.7
2017-Dec-15 18:43N 09°31' W 079°51'211.5
2017-Dec-15 18:30N 09°29' W 079°53'611.3
2017-Dec-15 18:00N 09°24' W 079°55'4 8.5
2017-Dec-15 17:31N 09°20' W 079°55'3 6.6
2017-Dec-15 17:00N 09°17' W 079°55'0 0.1
2017-Dec-15 16:31N 09°17' W 079°55'0 0.7
2017-Dec-15 16:00N 09°16' W 079°55'1 1.0
2017-Dec-15 15:30N 09°16' W 079°55'2 4.0
2017-Dec-15 15:00N 09°14' W 079°55'4 8.4
2017-Dec-15 14:30N 09°11' W 079°52'  

Dump ship's entire track history